Terminal Aerodrome Forecast
Issued by NWS

Current Version | Previous Version | Graphics & Text | Print | Product List | Glossary On
Versions: 1 2 3 4 5 6 7 8 9 10 11 12 13 14 15 16 17 18 19 20 21 22 23 24
757
FTUS41 KILN 261733
TAFLCK
TAF
KLCK 261733Z 2618/2718 20007KT P6SM VCSH SCT035 BKN070 OVC090
     FM261900 28012G18KT P6SM FEW100 BKN140
     FM270100 24005KT P6SM SKC
     FM271500 24014G24KT P6SM SKC=

USA.gov is the U.S. government's official web portal to all federal, state and local government web resources and services.